Time;durP1;ratioP1;P1;durP2;ratioP2;P2;SDS_P1;SDS_P2;PMS_P1;PMS_P2;Temp;Humidity;BMP_temperature;BMP_pressure;BME280_temperature;BME280_humidity;BME280_pressure;Samples;Min_cycle;Max_cycle;Signal;HPM_P1;HPM_P2
2021/06/13 00:00:24;;;;;;;22.85;7.20;;;10.90;85.50;;;;;;5051251;28;20097;-64
2021/06/13 00:02:50;;;;;;;16.80;7.38;;;9.40;84.60;;;;;;5050822;28;20093;-63
2021/06/13 00:05:17;;;;;;;13.73;6.57;;;11.20;86.30;;;;;;5048935;28;20101;-63
2021/06/13 00:07:44;;;;;;;17.88;7.82;;;11.00;86.30;;;;;;5038188;28;20089;-63
2021/06/13 00:10:11;;;;;;;15.43;7.53;;;11.70;85.70;;;;;;5038538;28;20474;-64
2021/06/13 00:12:38;;;;;;;16.88;7.18;;;10.80;87.40;;;;;;5049725;28;20128;-63
2021/06/13 00:15:06;;;;;;;14.15;6.65;;;11.10;86.80;;;;;;5050263;28;20085;-63
2021/06/13 00:17:32;;;;;;;16.55;7.95;;;10.80;87.90;;;;;;5049286;28;20168;-64
2021/06/13 00:19:58;;;;;;;14.45;6.45;;;11.20;88.30;;;;;;5064384;28;20180;-63
2021/06/13 00:22:24;;;;;;;18.60;8.18;;;12.00;88.40;;;;;;5059277;28;20093;-63
2021/06/13 00:24:50;;;;;;;17.35;7.20;;;11.20;87.70;;;;;;5050209;28;20516;-64
2021/06/13 00:27:16;;;;;;;26.35;8.20;;;11.40;87.80;;;;;;5048530;28;20091;-63
2021/06/13 00:29:41;;;;;;;17.50;7.57;;;10.70;86.90;;;;;;5048544;28;20196;-64
2021/06/13 00:32:07;;;;;;;14.70;7.53;;;10.80;86.70;;;;;;5049210;28;20097;-64
2021/06/13 00:34:33;;;;;;;18.63;7.82;;;12.20;87.90;;;;;;5045222;28;20147;-62
2021/06/13 00:36:59;;;;;;;15.35;7.15;;;10.60;86.10;;;;;;5048972;28;20084;-63
2021/06/13 00:39:25;;;;;;;19.65;8.05;;;10.60;86.70;;;;;;5049923;28;20100;-63
2021/06/13 00:41:51;;;;;;;19.02;8.48;;;10.60;87.70;;;;;;5046869;28;20159;-63
2021/06/13 00:44:17;;;;;;;13.40;6.95;;;10.50;86.80;;;;;;5050137;28;20139;-63
2021/06/13 00:46:43;;;;;;;16.50;7.20;;;10.50;86.00;;;;;;5056016;28;20100;-63
2021/06/13 00:49:09;;;;;;;17.45;7.60;;;10.50;87.00;;;;;;5041271;28;20093;-63
2021/06/13 00:51:35;;;;;;;15.00;7.40;;;10.00;88.00;;;;;;5029261;28;20128;-64
2021/06/13 00:54:01;;;;;;;17.92;8.00;;;11.40;87.30;;;;;;5046712;28;20089;-64
2021/06/13 00:56:27;;;;;;;19.63;8.35;;;;;;;;;;5081057;28;20235;-64
2021/06/13 00:58:54;;;;;;;16.02;8.40;;;;;;;;;;5049643;28;20093;-63
2021/06/13 01:01:19;;;;;;;15.73;8.32;;;9.80;88.20;;;;;;5043867;28;20479;-63
2021/06/13 01:03:47;;;;;;;16.95;7.97;;;10.30;88.90;;;;;;5050027;28;20078;-63
2021/06/13 01:06:42;;;;;;;20.15;7.50;;;11.50;88.00;;;;;;5050004;28;20093;-64
2021/06/13 01:09:10;;;;;;;17.80;7.95;;;10.30;88.40;;;;;;5040029;28;20127;-63
2021/06/13 01:11:51;;;;;;;20.35;7.75;;;10.40;89.20;;;;;;5047373;28;20569;-63
2021/06/13 01:14:36;;;;;;;17.23;8.45;;;10.60;90.10;;;;;;5048227;28;20097;-63
2021/06/13 01:17:39;;;;;;;20.08;8.25;;;10.20;90.00;;;;;;5051593;28;20090;-63
2021/06/13 01:20:21;;;;;;;17.40;8.10;;;10.40;89.80;;;;;;5043320;28;20508;-63
2021/06/13 01:23:08;;;;;;;17.95;8.25;;;10.50;90.20;;;;;;5048996;28;20173;-63
2021/06/13 01:26:15;;;;;;;17.88;8.13;;;10.60;89.00;;;;;;5048424;28;20177;-63
2021/06/13 01:29:06;;;;;;;17.60;7.97;;;10.20;89.20;;;;;;5041563;28;20100;-64
2021/06/13 01:31:36;;;;;;;21.42;8.55;;;10.30;88.50;;;;;;5048094;28;20596;-63
2021/06/13 01:34:10;;;;;;;22.33;8.77;;;10.10;90.30;;;;;;5048420;28;20566;-63
2021/06/13 01:36:37;;;;;;;15.25;8.68;;;9.30;88.90;;;;;;5047701;28;20119;-64
2021/06/13 01:39:11;;;;;;;15.98;8.13;;;8.60;88.60;;;;;;5079668;28;20096;-63
2021/06/13 01:41:38;;;;;;;17.38;8.27;;;;;;;;;;5057825;28;20093;-63
2021/06/13 01:44:06;;;;;;;19.83;9.07;;;10.30;90.10;;;;;;5048049;28;20099;-63
2021/06/13 01:46:35;;;;;;;18.35;8.45;;;9.70;90.00;;;;;;5045712;28;20116;-63
2021/06/13 01:49:03;;;;;;;21.65;8.98;;;10.20;89.20;;;;;;5048844;28;20109;-65
2021/06/13 01:51:31;;;;;;;15.68;8.20;;;10.20;89.00;;;;;;5048777;28;20113;-64
2021/06/13 01:54:00;;;;;;;17.05;8.45;;;11.60;90.10;;;;;;5035991;28;20139;-64
2021/06/13 01:56:27;;;;;;;18.80;8.48;;;11.20;90.30;;;;;;5047683;28;20090;-63
2021/06/13 01:58:56;;;;;;;18.90;8.85;;;10.20;89.50;;;;;;5047406;28;20093;-62
2021/06/13 02:01:23;;;;;;;17.97;8.53;;;10.30;90.20;;;;;;5049002;28;20167;-63
2021/06/13 02:03:51;;;;;;;18.65;8.55;;;10.60;90.50;;;;;;5049559;28;20093;-63
2021/06/13 02:06:22;;;;;;;24.30;9.00;;;10.10;89.90;;;;;;5057352;28;20844;-63
2021/06/13 02:08:48;;;;;;;23.58;8.82;;;10.40;89.40;;;;;;5047704;28;20238;-64
2021/06/13 02:11:15;;;;;;;24.45;9.85;;;10.10;89.70;;;;;;5055700;28;20109;-63
2021/06/13 02:13:44;;;;;;;17.40;8.90;;;10.10;87.90;;;;;;5040832;28;20177;-63
2021/06/13 02:16:11;;;;;;;20.55;8.27;;;11.60;90.30;;;;;;5059521;28;20093;-64
2021/06/13 02:18:38;;;;;;;18.75;9.02;;;10.20;89.10;;;;;;5048032;28;20096;-64
2021/06/13 02:21:09;;;;;;;18.10;8.48;;;10.80;90.10;;;;;;5044897;28;20081;-63
2021/06/13 02:23:37;;;;;;;21.50;9.15;;;10.10;89.50;;;;;;5045674;28;20098;-63
2021/06/13 02:26:03;;;;;;;20.35;8.48;;;10.00;90.40;;;;;;5047061;28;20539;-63
2021/06/13 02:28:32;;;;;;;17.58;9.52;;;9.80;90.70;;;;;;5047653;28;20092;-64
2021/06/13 02:31:00;;;;;;;22.30;10.07;;;9.80;89.20;;;;;;5049836;28;20106;-63
2021/06/13 02:33:27;;;;;;;21.65;9.77;;;9.80;90.50;;;;;;5089692;28;20097;-63
2021/06/13 02:35:54;;;;;;;17.85;8.60;;;10.00;90.20;;;;;;5055513;28;20124;-63
2021/06/13 02:38:21;;;;;;;19.20;9.25;;;9.70;89.90;;;;;;5049521;28;20094;-63
2021/06/13 02:40:49;;;;;;;19.17;9.02;;;10.00;90.00;;;;;;5051890;28;20097;-64
2021/06/13 02:43:15;;;;;;;17.23;8.25;;;9.70;89.70;;;;;;5052635;28;20118;-63
2021/06/13 02:45:42;;;;;;;19.05;8.73;;;10.00;89.90;;;;;;5049208;28;20094;-64
2021/06/13 02:48:09;;;;;;;20.10;7.88;;;9.20;90.30;;;;;;5050375;28;20089;-64
2021/06/13 02:50:35;;;;;;;24.25;9.70;;;9.30;89.20;;;;;;5050389;28;20581;-63
2021/06/13 02:53:42;;;;;;;18.33;8.75;;;10.10;89.90;;;;;;5051923;28;20123;-63
2021/06/13 02:56:29;;;;;;;20.25;9.18;;;9.70;89.10;;;;;;5045944;28;20108;-63
2021/06/13 02:59:29;;;;;;;18.88;8.82;;;9.70;90.10;;;;;;5050335;28;20163;-64
2021/06/13 03:01:56;;;;;;;18.30;8.88;;;9.80;90.30;;;;;;5047376;28;20100;-64
2021/06/13 03:04:23;;;;;;;17.73;8.25;;;11.20;90.30;;;;;;5051561;28;20177;-63
2021/06/13 03:06:55;;;;;;;22.42;9.93;;;9.80;90.40;;;;;;5054197;28;20565;-64
2021/06/13 03:09:24;;;;;;;22.58;9.50;;;11.60;90.40;;;;;;5049999;28;20631;-64
2021/06/13 03:11:51;;;;;;;27.90;9.85;;;9.70;90.70;;;;;;5050436;28;20081;-62
2021/06/13 03:14:18;;;;;;;21.48;9.07;;;9.70;91.20;;;;;;5051555;28;20085;-64
2021/06/13 03:16:45;;;;;;;25.92;9.38;;;9.70;90.70;;;;;;5051047;28;20099;-63
2021/06/13 03:19:12;;;;;;;21.42;10.52;;;9.90;90.50;;;;;;5041694;28;20160;-63
2021/06/13 03:21:39;;;;;;;17.80;9.07;;;9.60;90.20;;;;;;5050599;28;20176;-64
2021/06/13 03:24:07;;;;;;;18.70;8.60;;;9.70;90.10;;;;;;5051083;28;20550;-64
2021/06/13 03:26:36;;;;;;;20.50;8.95;;;9.60;90.40;;;;;;5043039;28;20184;-63
2021/06/13 03:29:03;;;;;;;17.95;9.07;;;9.60;89.30;;;;;;5049027;28;20554;-64
2021/06/13 03:31:29;;;;;;;20.48;9.43;;;11.30;90.80;;;;;;5048262;28;20093;-64
2021/06/13 03:33:56;;;;;;;18.95;8.52;;;10.00;90.00;;;;;;5048891;28;20093;-62
2021/06/13 03:36:24;;;;;;;18.38;8.52;;;9.90;90.20;;;;;;5041693;28;20104;-64
2021/06/13 03:38:51;;;;;;;20.38;9.10;;;9.80;90.40;;;;;;5045305;28;20936;-63
2021/06/13 03:41:21;;;;;;;20.08;9.25;;;9.80;90.00;;;;;;5048550;28;20543;-64
2021/06/13 03:43:51;;;;;;;16.60;8.23;;;8.20;89.40;;;;;;5049870;28;20095;-64
2021/06/13 03:46:18;;;;;;;20.25;9.48;;;9.50;90.40;;;;;;5049547;28;20092;-62
2021/06/13 03:48:45;;;;;;;19.02;9.32;;;10.00;90.40;;;;;;5051589;28;20124;-65
2021/06/13 03:51:12;;;;;;;19.92;8.98;;;9.80;90.50;;;;;;5081872;28;20421;-63
2021/06/13 03:53:46;;;;;;;20.02;9.57;;;9.70;90.80;;;;;;5050519;28;20175;-64
2021/06/13 03:56:19;;;;;;;21.08;9.18;;;8.50;89.90;;;;;;5052081;28;20088;-64
2021/06/13 03:58:46;;;;;;;24.65;9.48;;;9.90;90.50;;;;;;5056616;28;20613;-63
2021/06/13 04:01:14;;;;;;;16.30;9.13;;;9.80;90.40;;;;;;5049439;28;20578;-64
2021/06/13 04:03:41;;;;;;;22.02;8.82;;;9.80;91.00;;;;;;5048023;28;20578;-63
2021/06/13 04:06:08;;;;;;;18.98;8.50;;;9.80;90.50;;;;;;5050011;28;20089;-63
2021/06/13 04:08:37;;;;;;;18.88;9.50;;;9.90;90.00;;;;;;5048632;28;20136;-63
2021/06/13 04:11:04;;;;;;;18.38;8.90;;;10.20;90.10;;;;;;5049861;28;20117;-64
2021/06/13 04:13:32;;;;;;;26.67;9.25;;;9.90;90.30;;;;;;5049359;28;20089;-64
2021/06/13 04:15:59;;;;;;;18.70;8.52;;;11.30;90.00;;;;;;5047542;28;20093;-63
2021/06/13 04:18:26;;;;;;;19.88;9.30;;;9.80;90.80;;;;;;5049799;28;20088;-63
2021/06/13 04:20:52;;;;;;;16.70;8.38;;;10.30;90.40;;;;;;5049128;28;20184;-64
2021/06/13 04:23:18;;;;;;;22.00;9.13;;;9.80;90.70;;;;;;5049598;28;20167;-64
2021/06/13 04:25:44;;;;;;;21.35;8.80;;;10.20;90.20;;;;;;5049004;28;20100;-64
2021/06/13 04:28:15;;;;;;;19.88;9.02;;;10.00;89.90;;;;;;5049758;28;20139;-63
2021/06/13 04:30:41;;;;;;;19.85;8.85;;;10.50;90.60;;;;;;5043434;28;20559;-64
2021/06/13 04:33:09;;;;;;;15.77;9.13;;;10.10;90.30;;;;;;5049959;28;20143;-62
2021/06/13 04:35:35;;;;;;;21.65;9.48;;;10.00;90.40;;;;;;5048511;28;20136;-64
2021/06/13 04:38:00;;;;;;;19.48;9.60;;;10.10;91.00;;;;;;5045039;28;20496;-65
2021/06/13 04:40:26;;;;;;;21.30;9.20;;;9.70;90.90;;;;;;5048787;28;20147;-62
2021/06/13 04:42:52;;;;;;;24.45;9.63;;;9.50;90.50;;;;;;5049183;28;20096;-63
2021/06/13 04:45:18;;;;;;;20.35;8.65;;;8.70;89.80;;;;;;5049652;28;20089;-63
2021/06/13 04:47:44;;;;;;;17.08;9.07;;;10.10;90.20;;;;;;5046461;28;20184;-62
2021/06/13 04:50:10;;;;;;;24.17;9.68;;;9.10;90.20;;;;;;5043118;28;20531;-63
2021/06/13 04:52:39;;;;;;;22.05;8.65;;;11.30;90.60;;;;;;5033174;28;20122;-64
2021/06/13 04:55:28;;;;;;;19.27;9.40;;;10.60;90.50;;;;;;5038520;28;20547;-64
2021/06/13 04:58:26;;;;;;;19.60;8.80;;;10.60;90.80;;;;;;5047928;28;20089;-63
2021/06/13 05:00:53;;;;;;;25.60;10.13;;;10.60;91.50;;;;;;5055348;28;20226;-64
2021/06/13 05:03:19;;;;;;;19.67;8.73;;;10.60;90.80;;;;;;5051645;28;20101;-64
2021/06/13 05:05:45;;;;;;;32.67;10.82;;;10.80;91.60;;;;;;5044705;28;20125;-64
2021/06/13 05:08:12;;;;;;;17.08;8.43;;;10.90;91.20;;;;;;5063216;28;20101;-64
2021/06/13 05:10:38;;;;;;;23.48;9.85;;;10.90;91.20;;;;;;5048295;28;20175;-64
2021/06/13 05:13:17;;;;;;;21.98;9.77;;;10.90;91.00;;;;;;5045892;28;20158;-64
2021/06/13 05:15:44;;;;;;;22.67;9.38;;;10.30;92.30;;;;;;5047277;28;20097;-64
2021/06/13 05:18:10;;;;;;;21.00;9.30;;;11.00;91.80;;;;;;5037759;28;20325;-63
2021/06/13 05:20:36;;;;;;;23.15;9.80;;;12.60;92.50;;;;;;5060156;28;20177;-64
2021/06/13 05:23:05;;;;;;;17.40;8.85;;;11.30;91.60;;;;;;5053886;28;20081;-64
2021/06/13 05:25:34;;;;;;;19.43;9.10;;;11.10;91.90;;;;;;5047642;28;20168;-65
2021/06/13 05:28:01;;;;;;;22.98;9.93;;;11.50;92.20;;;;;;5048463;28;20125;-62
2021/06/13 05:30:28;;;;;;;20.23;9.43;;;11.60;91.60;;;;;;5050200;28;20115;-64
2021/06/13 05:32:55;;;;;;;21.10;8.48;;;11.70;90.90;;;;;;5048736;28;20155;-66
2021/06/13 05:35:22;;;;;;;18.63;8.35;;;11.80;90.80;;;;;;5053329;28;20089;-64
2021/06/13 05:37:48;;;;;;;22.45;9.25;;;11.90;90.70;;;;;;5055426;28;20093;-64
2021/06/13 05:40:15;;;;;;;21.08;9.02;;;11.40;90.50;;;;;;5050958;28;20108;-63
2021/06/13 05:42:41;;;;;;;15.70;8.20;;;12.30;90.70;;;;;;5052211;28;20125;-64
2021/06/13 05:45:09;;;;;;;19.80;8.18;;;13.40;90.30;;;;;;5053270;28;20124;-64
2021/06/13 05:47:35;;;;;;;19.40;7.60;;;10.90;89.90;;;;;;5045722;28;20101;-65
2021/06/13 05:50:03;;;;;;;16.80;7.95;;;12.30;89.30;;;;;;5049668;28;20438;-63
2021/06/13 05:52:29;;;;;;;18.85;8.85;;;;;;;;;;5048905;28;20140;-64
2021/06/13 05:54:58;;;;;;;27.15;8.45;;;12.60;88.70;;;;;;5050875;28;20546;-63
2021/06/13 05:57:34;;;;;;;14.07;7.30;;;13.80;89.50;;;;;;5046622;28;20088;-64
2021/06/13 06:00:10;;;;;;;19.83;7.82;;;13.50;88.90;;;;;;5043924;28;20104;-64
2021/06/13 06:02:36;;;;;;;19.73;7.95;;;13.10;88.00;;;;;;5041074;28;20143;-65
2021/06/13 06:05:07;;;;;;;19.38;7.47;;;13.00;86.80;;;;;;5051652;28;20081;-65
2021/06/13 06:07:33;;;;;;;14.50;6.20;;;13.00;85.80;;;;;;5055129;28;20084;-64
2021/06/13 06:10:00;;;;;;;18.90;6.50;;;13.10;86.10;;;;;;5058648;28;20115;-64
2021/06/13 06:12:26;;;;;;;19.85;6.82;;;14.60;85.90;;;;;;5054645;28;20454;-64
2021/06/13 06:14:51;;;;;;;16.45;7.10;;;11.90;85.20;;;;;;5051922;28;20097;-65
2021/06/13 06:17:18;;;;;;;14.27;6.20;;;13.20;84.30;;;;;;5046967;28;20495;-65
2021/06/13 06:19:45;;;;;;;16.80;6.72;;;13.30;84.00;;;;;;5059911;28;20097;-65
2021/06/13 06:22:11;;;;;;;15.73;6.68;;;13.50;84.10;;;;;;5051139;28;20089;-64
2021/06/13 06:24:37;;;;;;;12.75;6.72;;;13.70;82.50;;;;;;5048236;28;20093;-65
2021/06/13 06:27:04;;;;;;;19.20;6.32;;;13.60;82.50;;;;;;5047828;28;20151;-64
2021/06/13 06:29:30;;;;;;;15.63;6.70;;;15.10;82.80;;;;;;5059312;28;20121;-64
2021/06/13 06:31:56;;;;;;;14.52;7.03;;;13.70;81.20;;;;;;5055208;28;20654;-64
2021/06/13 06:34:23;;;;;;;13.07;6.28;;;15.00;82.00;;;;;;5052089;28;20181;-64
2021/06/13 06:36:49;;;;;;;15.63;6.78;;;13.90;81.40;;;;;;5053650;28;20112;-64
2021/06/13 06:39:15;;;;;;;14.73;6.15;;;13.90;78.90;;;;;;5050933;28;20097;-63
2021/06/13 06:41:41;;;;;;;12.63;6.13;;;14.10;78.10;;;;;;5052639;28;20093;-65
2021/06/13 06:44:08;;;;;;;14.02;6.22;;;14.10;78.00;;;;;;5051626;28;20085;-62
2021/06/13 06:46:35;;;;;;;16.00;5.95;;;14.20;78.40;;;;;;5050763;28;20108;-65
2021/06/13 06:49:03;;;;;;;18.98;6.43;;;14.30;76.80;;;;;;5043225;28;20086;-64
2021/06/13 06:51:29;;;;;;;10.98;6.25;;;14.50;76.20;;;;;;5047597;28;20089;-64
2021/06/13 06:53:57;;;;;;;16.75;6.78;;;14.40;76.20;;;;;;5050145;28;20196;-64
2021/06/13 06:56:23;;;;;;;13.10;5.93;;;14.40;76.00;;;;;;5022622;28;20448;-65
2021/06/13 06:58:50;;;;;;;13.65;6.05;;;14.50;76.40;;;;;;5049926;28;20085;-66
2021/06/13 07:01:15;;;;;;;10.95;5.05;;;14.60;74.30;;;;;;5045190;28;20135;-64
2021/06/13 07:03:42;;;;;;;14.77;5.90;;;14.60;73.70;;;;;;5050958;28;20093;-64
2021/06/13 07:06:08;;;;;;;13.98;5.38;;;14.60;71.00;;;;;;5056071;28;20092;-64
2021/06/13 07:08:33;;;;;;;13.27;5.82;;;14.70;71.30;;;;;;5045125;28;20631;-64
2021/06/13 07:10:59;;;;;;;14.07;5.97;;;15.60;73.40;;;;;;5043456;28;20109;-63
2021/06/13 07:13:25;;;;;;;14.02;5.18;;;14.90;69.60;;;;;;5052211;28;20543;-66
2021/06/13 07:15:51;;;;;;;9.27;4.45;;;14.90;69.90;;;;;;5055627;28;20464;-65
2021/06/13 07:18:18;;;;;;;12.07;5.18;;;14.90;68.40;;;;;;5061408;28;20117;-64
2021/06/13 07:20:44;;;;;;;18.17;5.15;;;15.10;69.10;;;;;;5049415;28;20129;-64
2021/06/13 07:23:10;;;;;;;11.27;5.15;;;15.30;68.60;;;;;;5041247;28;20461;-65
2021/06/13 07:25:36;;;;;;;11.02;4.95;;;15.90;64.90;;;;;;5048426;28;20096;-65
2021/06/13 07:28:04;;;;;;;12.43;4.72;;;16.60;63.20;;;;;;4001078;28;10000832;-65
2021/06/13 07:30:31;;;;;;;8.80;4.93;;;17.40;59.60;;;;;;5027417;28;20189;-65
2021/06/13 07:32:57;;;;;;;14.95;4.97;;;19.60;53.70;;;;;;5079770;28;20081;-65
2021/06/13 07:35:23;;;;;;;10.75;5.35;;;18.60;54.50;;;;;;5053735;28;20090;-65
2021/06/13 07:37:49;;;;;;;11.10;5.40;;;19.10;53.40;;;;;;5066116;28;20619;-65
2021/06/13 07:40:18;;;;;;;12.60;5.18;;;19.60;53.30;;;;;;5051870;28;20089;-65
2021/06/13 07:42:44;;;;;;;;;;;20.00;50.70;;;;;;5048875;28;20085;-65
2021/06/13 07:45:11;;;;;;;9.77;4.32;;;20.30;48.10;;;;;;5046151;28;20583;-66
2021/06/13 07:47:38;;;;;;;9.73;5.15;;;20.50;48.40;;;;;;5029135;28;20175;-66
2021/06/13 07:50:06;;;;;;;9.68;4.97;;;20.70;46.30;;;;;;5047426;28;20115;-66
2021/06/13 07:52:32;;;;;;;9.03;5.13;;;20.80;46.90;;;;;;5047196;28;20117;-66
2021/06/13 07:54:58;;;;;;;8.02;3.70;;;21.10;46.10;;;;;;5045509;28;20367;-65
2021/06/13 07:57:25;;;;;;;10.50;4.10;;;21.50;42.50;;;;;;5037381;28;20093;-65
2021/06/13 07:59:51;;;;;;;6.57;2.92;;;21.40;43.10;;;;;;5048611;28;20100;-66
2021/06/13 08:02:16;;;;;;;10.70;4.00;;;21.00;39.40;;;;;;5046885;28;20116;-65
2021/06/13 08:04:47;;;;;;;8.65;4.05;;;21.90;40.80;;;;;;5041709;28;20547;-67
2021/06/13 08:07:13;;;;;;;7.95;3.90;;;22.40;41.30;;;;;;5045425;28;20121;-66
2021/06/13 08:09:39;;;;;;;10.98;4.20;;;22.10;39.30;;;;;;5044219;28;20673;-65
2021/06/13 08:12:05;;;;;;;7.45;4.22;;;22.00;40.90;;;;;;5042836;28;20675;-65
2021/06/13 08:14:31;;;;;;;9.15;3.90;;;21.80;41.90;;;;;;5039756;28;20104;-65
2021/06/13 08:16:57;;;;;;;8.57;4.85;;;21.80;40.90;;;;;;5034121;28;20097;-65
2021/06/13 08:19:24;;;;;;;9.68;3.67;;;21.70;41.20;;;;;;5045129;28;20090;-66
2021/06/13 08:21:51;;;;;;;8.57;4.20;;;21.80;38.80;;;;;;5046835;28;20100;-66
2021/06/13 08:24:17;;;;;;;7.07;3.80;;;21.80;39.10;;;;;;5047526;28;20120;-64
2021/06/13 08:26:43;;;;;;;8.88;3.65;;;22.20;36.00;;;;;;5048278;28;20117;-66
2021/06/13 08:29:09;;;;;;;7.68;3.70;;;21.40;37.70;;;;;;5044519;28;20618;-65
2021/06/13 08:31:35;;;;;;;8.90;4.00;;;22.00;39.40;;;;;;5046505;28;20199;-66
2021/06/13 08:34:02;;;;;;;8.30;4.03;;;22.00;39.40;;;;;;5047931;28;20113;-66
2021/06/13 08:36:28;;;;;;;7.65;3.63;;;22.10;40.70;;;;;;5052096;28;20116;-65
2021/06/13 08:38:55;;;;;;;7.03;3.80;;;22.30;38.60;;;;;;5049606;28;20093;-65
2021/06/13 08:41:22;;;;;;;9.93;4.53;;;22.60;39.70;;;;;;5038738;28;20135;-65
2021/06/13 08:43:49;;;;;;;8.15;3.63;;;22.70;38.30;;;;;;5048999;28;20089;-65
2021/06/13 08:46:15;;;;;;;6.30;4.15;;;22.60;37.80;;;;;;5048019;28;20168;-65
2021/06/13 08:48:46;;;;;;;7.28;3.65;;;22.50;38.70;;;;;;5042485;28;20100;-65
2021/06/13 08:51:13;;;;;;;7.05;3.70;;;22.10;38.30;;;;;;5048430;28;20129;-67
2021/06/13 08:53:44;;;;;;;7.47;4.05;;;22.50;37.80;;;;;;5082166;28;20156;-65
2021/06/13 08:56:14;;;;;;;8.25;3.95;;;22.40;39.30;;;;;;5059557;28;20093;-66
2021/06/13 08:58:42;;;;;;;7.32;4.00;;;22.50;39.10;;;;;;5049218;28;20459;-65
2021/06/13 09:01:10;;;;;;;11.73;4.63;;;22.80;39.00;;;;;;5046752;28;20180;-64
2021/06/13 09:03:37;;;;;;;8.27;3.72;;;23.10;37.70;;;;;;5040467;28;20159;-65
2021/06/13 09:06:03;;;;;;;7.43;3.92;;;22.90;37.30;;;;;;5055373;28;20101;-65
2021/06/13 09:08:37;;;;;;;8.80;4.15;;;22.60;36.80;;;;;;5049401;28;20093;-65
2021/06/13 09:11:04;;;;;;;6.88;3.53;;;22.60;37.20;;;;;;5054052;28;20139;-65
2021/06/13 09:13:31;;;;;;;8.02;4.38;;;22.80;37.70;;;;;;5043422;28;20113;-63
2021/06/13 09:16:01;;;;;;;9.98;4.25;;;23.20;37.20;;;;;;5049075;28;20089;-65
2021/06/13 09:18:45;;;;;;;7.65;3.78;;;23.20;37.90;;;;;;5037029;28;20168;-65
2021/06/13 09:21:30;;;;;;;6.35;3.70;;;23.20;36.80;;;;;;5040674;28;20097;-64
2021/06/13 09:23:56;;;;;;;10.23;3.65;;;22.70;36.60;;;;;;5047326;28;20462;-63
2021/06/13 09:26:27;;;;;;;7.93;3.90;;;22.90;36.90;;;;;;5054145;28;20167;-63
2021/06/13 09:28:55;;;;;;;7.13;3.72;;;22.80;36.80;;;;;;5048809;28;20085;-63
2021/06/13 09:31:24;;;;;;;9.52;3.83;;;22.70;36.70;;;;;;5049185;28;20089;-62
2021/06/13 09:33:53;;;;;;;7.70;3.38;;;22.80;37.30;;;;;;5050171;28;20159;-63
2021/06/13 09:36:24;;;;;;;9.77;4.35;;;22.90;36.90;;;;;;5048870;28;20146;-64
2021/06/13 09:38:57;;;;;;;7.18;4.07;;;23.30;35.60;;;;;;5047833;28;20097;-62
2021/06/13 09:41:24;;;;;;;8.95;3.85;;;22.90;35.60;;;;;;5048494;28;20164;-63
2021/06/13 09:43:55;;;;;;;9.30;4.03;;;22.90;36.50;;;;;;5044240;28;20101;-63
2021/06/13 09:46:26;;;;;;;5.65;3.20;;;23.10;36.10;;;;;;5047710;28;20539;-64
2021/06/13 09:48:55;;;;;;;8.90;3.72;;;23.10;35.40;;;;;;5048925;28;20306;-63
2021/06/13 09:51:34;;;;;;;;;;;23.10;36.40;;;;;;5050878;28;20168;-63
2021/06/13 09:54:04;;;;;;;;;;;23.20;36.40;;;;;;5048033;28;20043;-64
2021/06/13 09:56:41;;;;;;;7.07;4.10;;;23.20;34.50;;;;;;5049151;28;20438;-63
2021/06/13 09:59:12;;;;;;;7.22;4.07;;;23.30;34.50;;;;;;5035847;28;20089;-63
2021/06/13 10:01:51;;;;;;;7.38;4.00;;;23.30;36.10;;;;;;5044178;28;20672;-64
2021/06/13 10:04:17;;;;;;;9.88;4.40;;;23.20;37.80;;;;;;5047728;28;20565;-63
2021/06/13 10:06:48;;;;;;;9.25;4.07;;;23.20;36.90;;;;;;5048321;28;20170;-63
2021/06/13 10:09:16;;;;;;;6.53;3.72;;;23.50;36.10;;;;;;5046688;28;20573;-64
2021/06/13 10:11:43;;;;;;;7.43;4.10;;;23.40;34.80;;;;;;5044999;28;20097;-62
2021/06/13 10:14:14;;;;;;;7.85;3.75;;;23.40;35.60;;;;;;5048440;28;20097;-64
2021/06/13 10:16:51;;;;;;;6.63;4.00;;;24.20;37.00;;;;;;5044597;28;20097;-63
2021/06/13 10:19:25;;;;;;;8.40;4.10;;;23.20;36.90;;;;;;5048777;28;20093;-64
2021/06/13 10:21:57;;;;;;;9.45;4.43;;;23.20;36.90;;;;;;5044807;28;20084;-64
2021/06/13 10:24:31;;;;;;;7.43;4.47;;;23.20;37.40;;;;;;5047576;28;20111;-65
2021/06/13 10:27:03;;;;;;;7.78;4.80;;;23.10;37.70;;;;;;5047834;28;20147;-64
2021/06/13 10:29:31;;;;;;;7.72;4.05;;;23.70;38.10;;;;;;5049661;28;20193;-64
2021/06/13 10:31:59;;;;;;;8.90;4.85;;;23.30;38.30;;;;;;5046939;28;20603;-63
2021/06/13 10:34:27;;;;;;;8.63;4.80;;;24.00;38.30;;;;;;5048159;28;20167;-64
2021/06/13 10:36:54;;;;;;;9.57;4.40;;;23.20;38.70;;;;;;5055362;28;20173;-63
2021/06/13 10:39:22;;;;;;;7.25;4.28;;;23.20;38.40;;;;;;5048920;28;20141;-64
2021/06/13 10:41:49;;;;;;;9.88;4.50;;;23.40;37.70;;;;;;5048045;28;20101;-64
2021/06/13 10:44:21;;;;;;;9.40;4.03;;;23.40;38.50;;;;;;5050679;28;20082;-64
2021/06/13 10:46:49;;;;;;;9.18;4.18;;;23.70;37.40;;;;;;5046080;28;20089;-65
2021/06/13 10:49:33;;;;;;;8.57;4.57;;;23.70;38.00;;;;;;5047805;28;20151;-65
2021/06/13 10:52:06;;;;;;;8.68;4.10;;;23.90;36.90;;;;;;5052449;28;20095;-65
2021/06/13 10:54:40;;;;;;;11.43;5.32;;;23.90;36.90;;;;;;5051788;28;20538;-64
2021/06/13 10:57:09;;;;;;;7.90;3.97;;;23.70;36.80;;;;;;5050131;28;20216;-63
2021/06/13 10:59:36;;;;;;;;;;;23.60;36.90;;;;;;5048441;28;20101;-64
2021/06/13 11:02:08;;;;;;;11.23;4.53;;;21.90;37.30;;;;;;5052013;28;19969;-64
2021/06/13 11:05:03;;;;;;;12.05;4.65;;;23.10;38.30;;;;;;5057102;28;20085;-65
2021/06/13 11:07:29;;;;;;;9.55;4.20;;;23.10;38.70;;;;;;5045672;28;20089;-64
2021/06/13 11:10:17;;;;;;;9.07;4.50;;;23.00;39.40;;;;;;5045517;28;20558;-64
2021/06/13 11:12:48;;;;;;;9.30;4.75;;;22.80;39.80;;;;;;5050200;28;20112;-65
2021/06/13 11:15:41;;;;;;;9.05;4.43;;;22.70;40.40;;;;;;5051298;28;20550;-64
2021/06/13 11:18:27;;;;;;;9.63;4.25;;;22.30;39.70;;;;;;5049808;28;20089;-64
2021/06/13 11:21:17;;;;;;;10.15;4.78;;;23.00;39.20;;;;;;5051955;28;20470;-64
2021/06/13 11:23:44;;;;;;;9.35;4.30;;;23.00;39.30;;;;;;5050178;28;20093;-66
2021/06/13 11:26:34;;;;;;;7.75;4.25;;;23.10;39.10;;;;;;5049744;28;20180;-65
2021/06/13 11:29:00;;;;;;;7.90;4.03;;;23.20;39.00;;;;;;5046460;28;20117;-64
2021/06/13 11:31:28;;;;;;;9.43;4.45;;;23.20;38.50;;;;;;5082753;28;20182;-64
2021/06/13 11:33:55;;;;;;;9.35;4.38;;;23.10;38.40;;;;;;5049031;28;20110;-63
2021/06/13 11:36:22;;;;;;;9.07;4.65;;;23.20;38.80;;;;;;5049558;28;20097;-65
2021/06/13 11:39:01;;;;;;;9.57;4.43;;;23.20;39.30;;;;;;5050602;28;20104;-65
2021/06/13 11:41:36;;;;;;;9.82;4.90;;;23.20;38.30;;;;;;5049177;28;20109;-64
2021/06/13 11:44:08;;;;;;;8.18;4.40;;;23.40;37.80;;;;;;5050533;28;20092;-64
2021/06/13 11:46:43;;;;;;;10.35;4.70;;;23.40;38.40;;;;;;5050437;28;20081;-64
2021/06/13 11:49:21;;;;;;;8.70;4.10;;;23.50;39.50;;;;;;5047075;28;20925;-63
2021/06/13 11:51:50;;;;;;;6.85;4.35;;;23.40;39.00;;;;;;5047894;28;20093;-64
2021/06/13 11:54:34;;;;;;;9.02;4.43;;;23.60;38.10;;;;;;5050491;28;20167;-64
2021/06/13 11:57:03;;;;;;;8.68;4.68;;;23.60;38.90;;;;;;5049613;28;20082;-64
2021/06/13 11:59:28;;;;;;;9.45;4.55;;;23.60;38.60;;;;;;5049512;28;20173;-64
2021/06/13 12:01:57;;;;;;;7.82;4.65;;;23.80;38.20;;;;;;5047317;28;20520;-64
2021/06/13 12:04:25;;;;;;;7.28;4.10;;;23.90;38.40;;;;;;5049873;28;20139;-64
2021/06/13 12:06:51;;;;;;;8.77;4.65;;;23.90;37.70;;;;;;5050362;28;20099;-64
2021/06/13 12:09:19;;;;;;;7.90;4.05;;;23.30;38.70;;;;;;5049339;28;20105;-66
2021/06/13 12:11:49;;;;;;;7.80;4.57;;;23.90;39.40;;;;;;5049153;28;20098;-63
2021/06/13 12:14:21;;;;;;;10.68;4.68;;;24.10;38.60;;;;;;5036560;28;20093;-65
2021/06/13 12:17:12;;;;;;;8.05;4.43;;;24.20;38.40;;;;;;5050032;28;20478;-65
2021/06/13 12:19:50;;;;;;;8.50;4.50;;;24.20;37.90;;;;;;5035801;28;20117;-65
2021/06/13 12:27:28;;;;;;;9.32;4.00;;;24.40;38.10;;;;;;5053005;28;20100;-65
2021/06/13 12:30:04;;;;;;;9.13;4.70;;;24.20;38.00;;;;;;5060865;28;20101;-64
2021/06/13 12:32:33;;;;;;;7.82;4.63;;;24.30;39.60;;;;;;5048622;28;20112;-64
2021/06/13 12:35:16;;;;;;;9.65;4.57;;;26.40;38.40;;;;;;5050310;28;20547;-63
2021/06/13 12:37:56;;;;;;;9.93;4.75;;;24.80;37.80;;;;;;5048575;28;20085;-64
2021/06/13 12:40:22;;;;;;;12.38;4.35;;;25.10;38.70;;;;;;5049431;28;20097;-64
2021/06/13 12:42:48;;;;;;;8.23;4.65;;;25.10;36.20;;;;;;5049195;28;20148;-65
2021/06/13 12:45:16;;;;;;;10.52;4.68;;;25.30;36.60;;;;;;5048927;28;20501;-65
2021/06/13 12:47:46;;;;;;;10.57;5.17;;;25.40;36.00;;;;;;4001707;28;10001016;-64
2021/06/13 12:50:35;;;;;;;9.48;4.53;;;25.50;37.00;;;;;;5047284;28;20097;-64
2021/06/13 12:53:05;;;;;;;10.77;4.65;;;25.40;35.60;;;;;;5038603;28;20093;-68
2021/06/13 12:55:40;;;;;;;8.38;4.88;;;25.40;35.20;;;;;;5045134;28;20504;-68
2021/06/13 12:58:13;;;;;;;11.23;5.38;;;25.30;35.90;;;;;;5038377;28;20097;-69
2021/06/13 13:00:40;;;;;;;13.55;5.20;;;24.90;36.20;;;;;;5078769;28;20101;-67